Time;durP1;ratioP1;P1;durP2;ratioP2;P2;SDS_P1;SDS_P2;PMS_P1;PMS_P2;Temp;Humidity;BMP_temperature;BMP_pressure;BME280_temperature;BME280_humidity;BME280_pressure;Samples;Min_cycle;Max_cycle;Signal;HPM_P1;HPM_P2
2021/06/14 00:01:56;;;;;;;;;6.75;5.25;;;;;22.88;35.37;101662.69;5100745;27;45293;-62
2021/06/14 00:04:21;;;;;;;;;7.50;5.00;;;;;22.87;35.82;101669.84;5100727;27;45964;-61
2021/06/14 00:06:47;;;;;;;;;6.00;6.00;;;;;22.90;35.85;101668.81;5100545;27;45323;-60
2021/06/14 00:09:17;;;;;;;;;4.50;4.50;;;;;22.86;35.76;101664.56;5101116;27;45340;-60
2021/06/14 00:11:42;;;;;;;;;5.50;4.00;;;;;22.84;35.55;101669.13;5082535;27;45552;-60
2021/06/14 00:14:07;;;;;;;;;5.25;4.25;;;;;22.81;36.09;101677.34;5100401;27;46215;-59
2021/06/14 00:16:35;;;;;;;;;7.50;5.50;;;;;22.79;35.82;101679.22;5100554;27;45243;-59
2021/06/14 00:19:02;;;;;;;;;7.00;5.75;;;;;22.76;36.22;101680.25;5082776;27;45417;-59
2021/06/14 00:21:28;;;;;;;;;5.00;4.00;;;;;22.72;36.10;101673.31;5100536;27;45338;-59
2021/06/14 00:23:53;;;;;;;;;5.50;4.00;;;;;22.71;36.36;101674.25;5100237;27;45633;-60
2021/06/14 00:26:19;;;;;;;;;5.25;5.25;;;;;22.70;36.19;101659.13;5100555;27;45638;-60
2021/06/14 00:28:44;;;;;;;;;6.00;6.00;;;;;22.67;36.52;101670.88;5081875;27;45343;-59
2021/06/14 00:31:10;;;;;;;;;6.00;5.25;;;;;22.65;36.33;101663.84;5100351;27;45280;-60
2021/06/14 00:33:37;;;;;;;;;6.50;5.00;;;;;22.60;36.37;101660.53;5100173;27;46028;-60
2021/06/14 00:36:04;;;;;;;;;4.75;4.75;;;;;22.56;36.74;101666.06;5100332;27;45274;-60
2021/06/14 00:38:29;;;;;;;;;6.25;5.00;;;;;22.55;36.64;101674.16;5100232;27;45464;-60
2021/06/14 00:40:55;;;;;;;;;5.75;5.75;;;;;22.55;37.18;101668.81;5106688;27;45268;-60
2021/06/14 00:43:20;;;;;;;;;6.50;6.00;;;;;22.52;36.85;101675.19;5120348;27;45933;-60
2021/06/14 00:45:49;;;;;;;;;6.00;6.00;;;;;22.48;36.80;101673.59;5120817;27;45318;-60
2021/06/14 00:48:15;;;;;;;;;4.00;4.00;;;;;22.48;37.30;101673.59;5121232;27;45282;-60
2021/06/14 00:50:50;;;;;;;;;7.25;6.00;;;;;22.46;36.63;101671.94;5113957;27;45670;-60
2021/06/14 00:53:19;;;;;;;;;4.75;4.00;;;;;22.44;37.38;101671.16;5100072;27;45446;-60
2021/06/14 00:55:46;;;;;;;;;5.25;4.75;;;;;22.40;37.28;101663.28;5100257;27;45475;-60
2021/06/14 00:58:11;;;;;;;;;5.00;5.00;;;;;22.39;36.91;101669.56;5099727;27;45468;-60
2021/06/14 01:00:37;;;;;;;;;4.00;4.00;;;;;22.40;37.32;101665.06;5081758;27;45322;-60
2021/06/14 01:03:03;;;;;;;;;5.25;4.25;;;;;22.36;37.38;101667.03;5099879;27;45435;-60
2021/06/14 01:05:34;;;;;;;;;6.00;5.25;;;;;22.34;37.57;101665.34;5100276;27;45301;-59
2021/06/14 01:07:59;;;;;;;;;4.00;4.00;;;;;22.34;37.53;101668.03;5103681;27;45457;-60
2021/06/14 01:10:25;;;;;;;;;6.75;6.25;;;;;22.31;37.47;101669.03;5103547;27;45393;-59
2021/06/14 01:13:11;;;;;;;;;5.00;5.00;;;;;22.28;37.83;101666.53;5102899;27;45930;-60
2021/06/14 01:15:50;;;;;;;;;5.75;5.75;;;;;22.26;37.89;101657.69;5103474;27;45398;-60
2021/06/14 01:18:22;;;;;;;;;6.25;4.50;;;;;22.26;37.74;101665.72;5110801;27;45158;-59
2021/06/14 01:20:58;;;;;;;;;8.25;5.75;;;;;22.19;37.91;101657.13;5123882;27;45398;-60
2021/06/14 01:23:51;;;;;;;;;4.00;4.00;;;;;22.14;37.90;101658.28;5123868;27;46120;-59
2021/06/14 01:26:20;;;;;;;;;5.00;5.00;;;;;22.05;38.20;101659.63;5105274;27;45418;-60
2021/06/14 01:28:50;;;;;;;;;5.25;5.25;;;;;22.03;38.67;101666.84;5123683;27;45483;-60
2021/06/14 01:31:16;;;;;;;;;5.00;5.00;;;;;21.98;38.71;101661.72;5123817;27;45323;-60
2021/06/14 01:33:43;;;;;;;;;5.50;5.00;;;;;21.94;38.44;101651.22;5123437;27;46494;-60
2021/06/14 01:36:15;;;;;;;;;4.25;4.25;;;;;21.94;38.39;101660.13;5123844;27;45229;-60
2021/06/14 01:38:44;;;;;;;;;6.00;6.00;;;;;21.92;38.93;101653.97;5122359;27;45432;-59
2021/06/14 01:41:12;;;;;;;;;4.50;4.25;;;;;21.92;38.37;101652.19;5111744;27;45383;-60
2021/06/14 01:43:40;;;;;;;;;5.25;5.00;;;;;21.89;38.93;101641.59;5123070;27;45535;-60
2021/06/14 01:46:12;;;;;;;;;4.00;4.00;;;;;21.89;38.83;101646.09;5123752;27;45379;-59
2021/06/14 01:48:39;;;;;;;;;4.00;4.00;;;;;21.81;38.81;101635.78;5123642;27;45325;-60
2021/06/14 01:51:08;;;;;;;;;5.00;3.75;;;;;21.79;39.05;101645.66;5112880;27;45359;-60
2021/06/14 01:53:35;;;;;;;;;4.25;4.25;;;;;21.75;39.00;101625.38;5102706;27;47001;-60
2021/06/14 01:56:02;;;;;;;;;5.25;4.50;;;;;21.70;39.39;101624.72;5102926;27;45251;-60
2021/06/14 01:58:30;;;;;;;;;4.25;4.25;;;;;21.70;38.71;101622.91;5067221;27;45288;-60
2021/06/14 02:00:56;;;;;;;;;6.00;6.00;;;;;21.69;39.33;101623.84;5102941;27;45537;-60
2021/06/14 02:03:23;;;;;;;;;4.00;4.00;;;;;21.67;39.42;101625.72;5102588;27;45406;-60
2021/06/14 02:05:49;;;;;;;;;5.00;5.00;;;;;21.62;39.01;101611.69;5102803;27;45383;-60
2021/06/14 02:08:17;;;;;;;;;5.25;4.00;;;;;21.58;39.71;101612.78;5102648;27;45278;-59
2021/06/14 02:10:43;;;;;;;;;5.25;5.00;;;;;21.57;39.29;101617.25;5102723;27;45482;-60
2021/06/14 02:13:10;;;;;;;;;4.00;4.00;;;;;21.55;39.59;101618.25;5102085;27;45409;-60
2021/06/14 02:15:36;;;;;;;;;5.00;4.25;;;;;21.52;40.06;101610.34;5111319;27;45429;-60
2021/06/14 02:18:03;;;;;;;;;5.00;5.00;;;;;21.49;40.31;101605.16;5102271;27;45300;-59
2021/06/14 02:20:29;;;;;;;;;5.00;4.00;;;;;21.48;40.24;101592.72;5102552;27;45461;-60
2021/06/14 02:22:54;;;;;;;;;4.00;4.00;;;;;21.43;39.99;101607.19;5102118;27;46509;-59
2021/06/14 02:25:20;;;;;;;;;6.25;6.25;;;;;21.43;40.32;101599.16;5102495;27;45248;-60
2021/06/14 02:27:45;;;;;;;;;5.00;4.25;;;;;21.42;40.60;101601.88;5102156;27;45427;-59
2021/06/14 02:30:14;;;;;;;;;4.75;4.75;;;;;21.41;40.39;101594.81;5084043;27;45206;-60
2021/06/14 02:32:41;;;;;;;;;4.00;4.00;;;;;21.38;40.29;101590.50;5102002;27;46044;-59
2021/06/14 02:35:08;;;;;;;;;4.25;3.75;;;;;21.37;40.57;101591.44;5102296;27;45374;-60
2021/06/14 02:37:37;;;;;;;;;6.00;5.50;;;;;21.35;40.45;101584.41;5100823;27;45284;-60
2021/06/14 02:40:07;;;;;;;;;3.00;3.00;;;;;21.31;40.33;101578.34;5102110;27;45586;-59
2021/06/14 02:42:34;;;;;;;;;6.00;5.00;;;;;21.31;40.71;101578.34;5121985;27;45271;-60
2021/06/14 02:45:00;;;;;;;;;3.75;3.25;;;;;21.25;40.94;101571.44;5122596;27;45299;-60
2021/06/14 02:47:26;;;;;;;;;4.00;4.00;;;;;21.27;40.67;101576.75;5122860;27;45161;-60
2021/06/14 02:49:54;;;;;;;;;4.00;4.00;;;;;21.22;40.93;101573.41;5122687;27;45249;-60
2021/06/14 02:52:21;;;;;;;;;6.25;6.25;;;;;21.20;41.28;101573.47;5101974;27;46215;-60
2021/06/14 02:54:53;;;;;;;;;5.75;5.75;;;;;21.19;40.90;101573.56;5100475;27;45707;-60
2021/06/14 02:57:20;;;;;;;;;6.75;5.00;;;;;21.16;40.89;101563.88;5101828;27;45217;-60
2021/06/14 02:59:48;;;;;;;;;6.00;6.00;;;;;21.14;40.87;101564.88;5101694;27;45481;-60
2021/06/14 03:02:13;;;;;;;;;7.25;6.75;;;;;21.11;41.37;101557.88;5083306;27;47352;-61
2021/06/14 03:04:39;;;;;;;;;6.25;6.25;;;;;21.09;41.10;101573.97;5101607;27;45190;-60
2021/06/14 03:07:06;;;;;;;;;6.25;6.00;;;;;21.09;41.59;101573.97;5102017;27;45371;-61
2021/06/14 03:09:32;;;;;;;;;5.50;5.50;;;;;21.05;41.49;101564.34;5101644;27;45239;-61
2021/06/14 03:11:58;;;;;;;;;5.00;5.00;;;;;21.04;41.50;101569.78;5101140;27;46365;-59
2021/06/14 03:14:25;;;;;;;;;5.00;5.00;;;;;21.05;41.65;101569.69;5083194;27;46160;-59
2021/06/14 03:16:51;;;;;;;;;4.50;4.50;;;;;21.04;41.59;101570.66;5100455;27;45354;-59
2021/06/14 03:19:22;;;;;;;;;6.25;6.25;;;;;21.02;41.98;101572.50;5101170;27;45501;-59
2021/06/14 03:21:47;;;;;;;;;9.00;7.25;;;;;20.99;41.47;101580.66;5101238;27;46351;-59
2021/06/14 03:24:15;;;;;;;;;6.75;5.50;;;;;20.93;41.92;101572.94;5082996;27;45192;-59
2021/06/14 03:26:43;;;;;;;;;6.00;6.00;;;;;20.90;42.07;101583.75;5083059;27;45413;-59
2021/06/14 03:29:10;;;;;;;;;6.00;6.00;;;;;20.82;41.92;101575.19;5100558;27;45590;-59
2021/06/14 03:31:37;;;;;;;;;6.50;5.00;;;;;20.80;42.62;101587.75;5101110;27;48327;-58
2021/06/14 03:34:04;;;;;;;;;6.50;6.50;;;;;20.74;42.44;101584.44;5101187;27;45375;-59
2021/06/14 03:36:30;;;;;;;;;7.00;6.50;;;;;20.70;42.37;101585.44;5100120;27;45359;-59
2021/06/14 03:38:57;;;;;;;;;7.25;7.25;;;;;20.69;43.00;101575.72;5104078;27;45838;-59
2021/06/14 03:41:23;;;;;;;;;7.00;5.25;;;;;20.67;42.71;101582.06;5111610;27;46297;-58
2021/06/14 03:43:49;;;;;;;;;7.00;7.00;;;;;20.66;43.27;101583.00;5102885;27;45412;-58
2021/06/14 03:46:15;;;;;;;;;7.25;7.25;;;;;20.66;43.18;101583.84;5103619;27;46128;-58
2021/06/14 03:48:41;;;;;;;;;7.00;7.00;;;;;20.66;43.33;101583.84;5121660;27;45377;-58
2021/06/14 03:51:07;;;;;;;;;7.00;6.50;;;;;20.63;43.22;101578.66;5110530;27;46026;-58
2021/06/14 03:53:33;;;;;;;;;14.75;11.50;;;;;20.62;43.12;101579.59;5100961;27;45211;-61
2021/06/14 03:56:17;;;;;;;;;15.25;14.25;;;;;20.60;43.37;101586.78;5101192;27;45486;-58
2021/06/14 03:58:42;;;;;;;;;8.00;8.00;;;;;20.60;42.93;101585.00;5082214;27;45442;-58
2021/06/14 04:01:08;;;;;;;;;8.25;6.75;;;;;20.60;43.09;101581.44;5100816;27;46132;-58
2021/06/14 04:03:33;;;;;;;;;5.75;4.75;;;;;20.58;42.95;101584.19;5101039;27;45212;-58
2021/06/14 04:06:02;;;;;;;;;5.50;3.75;;;;;20.54;43.13;101579.91;5099786;27;45417;-58
2021/06/14 04:08:29;;;;;;;;;5.50;5.50;;;;;20.50;43.37;101585.44;5100755;27;45321;-58
2021/06/14 04:10:54;;;;;;;;;8.00;5.00;;;;;20.46;43.26;101588.25;5100661;27;46083;-58
2021/06/14 04:13:20;;;;;;;;;6.00;4.00;;;;;20.38;43.74;101582.38;5100221;27;45323;-58
2021/06/14 04:15:45;;;;;;;;;7.00;5.50;;;;;20.36;44.03;101581.56;5101048;27;45286;-58
2021/06/14 04:18:11;;;;;;;;;6.75;5.75;;;;;20.37;43.57;101591.31;5100565;27;46470;-58
2021/06/14 04:20:37;;;;;;;;;6.75;5.25;;;;;20.34;43.60;101599.44;5100580;27;45321;-58
2021/06/14 04:23:03;;;;;;;;;8.75;6.25;;;;;20.33;43.82;101595.03;5100573;27;45248;-59
2021/06/14 04:25:28;;;;;;;;;5.25;5.25;;;;;20.32;44.23;101593.28;5101035;27;45299;-59
2021/06/14 04:27:54;;;;;;;;;5.25;5.25;;;;;20.33;44.39;101599.53;5100107;27;45709;-59
2021/06/14 04:30:20;;;;;;;;;8.50;5.00;;;;;20.33;44.61;101596.84;5082146;27;46229;-59
2021/06/14 04:32:45;;;;;;;;;6.75;5.75;;;;;20.35;43.97;101597.63;5100312;27;45390;-59
2021/06/14 04:35:12;;;;;;;;;6.00;4.00;;;;;20.36;44.13;101602.91;5100764;27;45291;-59
2021/06/14 04:37:37;;;;;;;;;7.00;4.50;;;;;20.26;44.33;101586.44;5100397;27;45339;-59
2021/06/14 04:40:04;;;;;;;;;6.25;6.00;;;;;20.36;44.28;101597.56;5100195;27;46144;-59
2021/06/14 04:42:30;;;;;;;;;4.75;4.75;;;;;20.39;43.85;101610.81;5122773;27;45239;-59
2021/06/14 04:44:55;;;;;;;;;5.75;4.00;;;;;20.35;44.14;101594.97;5124811;27;45301;-59
2021/06/14 04:47:20;;;;;;;;;5.25;5.25;;;;;20.41;43.84;101608.06;5124518;27;45214;-59
2021/06/14 04:49:47;;;;;;;;;7.50;7.00;;;;;20.41;43.98;101619.59;5106520;27;46233;-59
2021/06/14 04:52:13;;;;;;;;;7.00;7.00;;;;;20.44;43.83;101615.97;5104400;27;45359;-59
2021/06/14 04:54:39;;;;;;;;;13.25;11.50;;;;;20.46;44.08;101614.97;5102572;27;45281;-59
2021/06/14 04:57:05;;;;;;;;;6.75;6.00;;;;;20.48;43.80;101614.00;5103392;27;45354;-59
2021/06/14 04:59:30;;;;;;;;;6.00;6.00;;;;;20.49;43.73;101615.75;5103587;27;46169;-59
2021/06/14 05:01:56;;;;;;;;;6.00;5.00;;;;;20.49;44.08;101621.97;5103553;27;45382;-59
2021/06/14 05:04:21;;;;;;;;;6.50;5.00;;;;;20.48;43.88;101616.66;5103928;27;45313;-59
2021/06/14 05:06:47;;;;;;;;;6.00;6.00;;;;;20.50;43.73;101622.81;5103608;27;45521;-59
2021/06/14 05:09:12;;;;;;;;;8.25;6.00;;;;;20.49;43.49;101621.97;5103533;27;46192;-59
2021/06/14 05:11:38;;;;;;;;;5.50;5.25;;;;;20.55;43.64;101626.16;5084842;27;45322;-59
2021/06/14 05:14:03;;;;;;;;;11.75;8.25;;;;;20.56;43.87;101634.09;5103725;27;45343;-59
2021/06/14 05:16:29;;;;;;;;;7.50;7.50;;;;;20.59;43.41;101639.31;5085076;27;45531;-59
2021/06/14 05:18:54;;;;;;;;;6.50;6.50;;;;;20.61;43.13;101640.09;5103477;27;46023;-59
2021/06/14 05:21:20;;;;;;;;;5.75;5.00;;;;;20.64;43.32;101644.47;5103311;27;45489;-60
2021/06/14 05:23:45;;;;;;;;;7.50;6.75;;;;;20.68;43.49;101643.41;5103564;27;45256;-60
2021/06/14 05:26:10;;;;;;;;;6.75;6.75;;;;;20.68;43.28;101648.75;5103231;27;45235;-45
2021/06/14 05:28:36;;;;;;;;;7.25;6.50;;;;;20.65;43.46;101645.34;5084592;27;48697;-47
2021/06/14 05:31:01;;;;;;;;;9.00;6.25;;;;;20.72;42.65;101649.53;5103148;27;45419;-46
2021/06/14 05:33:27;;;;;;;;;6.50;6.00;;;;;20.74;42.31;101653.88;5103380;27;45231;-46
2021/06/14 05:35:52;;;;;;;;;8.00;6.75;;;;;20.77;42.71;101652.88;5103112;27;45612;-46
2021/06/14 05:38:17;;;;;;;;;7.25;6.75;;;;;20.80;42.62;101654.53;5103125;27;45277;-49
2021/06/14 05:40:43;;;;;;;;;6.75;6.25;;;;;20.83;42.29;101654.38;5107753;27;45493;-47
2021/06/14 05:43:08;;;;;;;;;11.00;9.25;;;;;20.88;42.49;101652.38;5123600;27;45394;-47
2021/06/14 05:45:33;;;;;;;;;8.25;6.50;;;;;20.92;41.74;101649.53;5123482;27;45157;-46
2021/06/14 05:47:59;;;;;;;;;6.25;5.75;;;;;20.98;41.61;101650.19;5123714;27;46226;-48
2021/06/14 05:50:24;;;;;;;;;8.25;6.50;;;;;20.99;41.86;101647.44;5118723;27;45304;-46
2021/06/14 05:52:50;;;;;;;;;7.00;7.00;;;;;21.04;41.19;101639.25;5084235;27;45308;-45
2021/06/14 05:55:15;;;;;;;;;7.50;6.75;;;;;21.09;40.96;101646.13;5102838;27;45512;-49
2021/06/14 05:57:40;;;;;;;;;4.25;4.25;;;;;21.15;41.15;101641.44;5102639;27;45335;-49
2021/06/14 06:00:08;;;;;;;;;8.00;8.00;;;;;21.18;41.14;101639.50;5102392;27;45341;-48
2021/06/14 06:02:33;;;;;;;;;8.50;7.75;;;;;21.25;40.84;101626.72;5102867;27;45472;-48
2021/06/14 06:04:58;;;;;;;;;7.00;7.00;;;;;21.33;40.49;101639.75;5102561;27;45418;-47
2021/06/14 06:07:24;;;;;;;;;8.00;6.00;;;;;21.34;40.74;101634.31;5102684;27;46041;-49
2021/06/14 06:09:50;;;;;;;;;6.00;5.00;;;;;21.43;40.33;101638.38;5102478;27;45173;-45
2021/06/14 06:12:15;;;;;;;;;6.75;6.75;;;;;21.49;40.14;101639.91;5102409;27;45255;-54
2021/06/14 06:14:40;;;;;;;;;6.75;6.75;;;;;21.58;40.93;101640.41;5102443;27;45236;-50
2021/06/14 06:17:06;;;;;;;;;7.50;6.50;;;;;21.77;40.68;101644.00;5102664;27;45308;-51
2021/06/14 06:19:31;;;;;;;;;8.50;8.00;;;;;21.88;40.17;101645.22;5102161;27;45362;-53
2021/06/14 06:21:57;;;;;;;;;7.50;7.50;;;;;22.00;40.20;101643.78;5084410;27;45289;-54
2021/06/14 06:24:22;;;;;;;;;9.00;9.00;;;;;22.07;39.80;101642.56;5102183;27;45406;-55
2021/06/14 06:26:47;;;;;;;;;9.00;7.75;;;;;22.17;39.94;101653.66;5102179;27;46221;-51
2021/06/14 06:29:13;;;;;;;;;9.50;8.00;;;;;22.23;39.35;101653.34;5102170;27;45243;-53
2021/06/14 06:31:38;;;;;;;;;6.25;6.25;;;;;22.29;39.77;101652.19;5084113;27;45429;-53
2021/06/14 06:34:03;;;;;;;;;8.75;7.50;;;;;22.35;39.86;101653.69;5102371;27;45469;-52
2021/06/14 06:36:29;;;;;;;;;4.50;4.50;;;;;22.38;39.98;101640.22;5102228;27;45220;-52
2021/06/14 06:38:54;;;;;;;;;8.00;6.75;;;;;22.44;39.88;101639.91;5102054;27;45546;-52
2021/06/14 06:41:20;;;;;;;;;9.00;7.25;;;;;22.48;39.61;101643.28;5093908;27;45380;-54
2021/06/14 06:43:45;;;;;;;;;9.00;7.50;;;;;22.51;39.44;101637.78;5103563;27;45976;-53
2021/06/14 06:46:11;;;;;;;;;9.00;9.00;;;;;22.56;39.47;101638.41;5121631;27;46237;-53
2021/06/14 06:48:37;;;;;;;;;7.25;7.25;;;;;22.58;39.33;101636.53;5103931;27;45419;-74
2021/06/14 06:51:02;;;;;;;;;9.00;8.00;;;;;22.62;39.39;101640.78;5112180;27;45259;-74
2021/06/14 06:53:29;;;;;;;;;8.25;8.00;;;;;22.66;38.96;101639.66;5101702;27;45357;-75
2021/06/14 06:55:55;;;;;;;;;7.00;7.00;;;;;22.69;39.39;101633.28;5101949;27;46293;-75
2021/06/14 06:58:21;;;;;;;;;10.00;10.00;;;;;22.71;39.19;101634.06;5101774;27;45259;-75
2021/06/14 07:00:51;;;;;;;;;12.75;10.25;;;;;22.77;38.88;101633.78;5101824;27;45235;-75
2021/06/14 07:03:17;;;;;;;;;9.25;7.75;;;;;22.82;39.59;101636.22;5100964;27;45244;-75
2021/06/14 07:05:43;;;;;;;;;8.50;7.25;;;;;22.80;39.29;101628.22;5101127;27;46222;-74
2021/06/14 07:08:09;;;;;;;;;8.25;7.00;;;;;22.86;38.76;101637.78;5101575;27;45473;-74
2021/06/14 07:10:35;;;;;;;;;8.75;8.00;;;;;22.88;39.14;101636.75;5101439;27;45319;-74
2021/06/14 07:13:00;;;;;;;;;6.25;6.25;;;;;22.91;39.19;101638.41;5101000;27;45451;-73
2021/06/14 07:15:27;;;;;;;;;7.25;7.00;;;;;22.95;38.72;101629.25;5101590;27;46008;-74
2021/06/14 07:17:52;;;;;;;;;7.50;7.00;;;;;23.00;38.46;101629.88;5101215;27;45252;-73
2021/06/14 07:20:18;;;;;;;;;8.25;8.00;;;;;23.03;38.79;101623.47;5101740;27;45300;-74
2021/06/14 07:22:43;;;;;;;;;8.25;7.00;;;;;23.07;38.33;101624.19;5101277;27;45395;-74
2021/06/14 07:25:10;;;;;;;;;7.75;7.50;;;;;23.11;38.50;101625.78;5101341;27;45968;-74
2021/06/14 07:27:36;;;;;;;;;9.00;8.00;;;;;23.10;38.19;101613.31;5082589;27;45470;-75
2021/06/14 07:30:05;;;;;;;;;7.00;7.00;;;;;23.15;38.21;101616.63;5101537;27;45262;-73
2021/06/14 07:32:31;;;;;;;;;7.25;6.75;;;;;23.21;38.34;101614.50;5101007;27;45437;-75
2021/06/14 07:34:56;;;;;;;;;7.00;6.75;;;;;23.26;38.44;101616.06;5101190;27;46141;-75
2021/06/14 07:37:22;;;;;;;;;7.25;7.00;;;;;23.28;38.61;101609.69;5101148;27;45182;-75
2021/06/14 07:39:47;;;;;;;;;8.25;8.25;;;;;23.34;38.22;101603.13;5097715;27;45247;-72
2021/06/14 07:42:16;;;;;;;;;6.00;6.00;;;;;23.39;38.22;101611.78;5121306;27;45354;-74
2021/06/14 07:44:42;;;;;;;;;9.00;8.00;;;;;23.42;37.90;101606.25;5121652;27;46034;-74
2021/06/14 07:47:07;;;;;;;;;7.25;6.00;;;;;23.48;38.13;101613.97;5121536;27;45345;-74
2021/06/14 07:49:34;;;;;;;;;10.00;7.00;;;;;23.52;38.06;101610.16;5121801;27;45343;-74
2021/06/14 07:51:59;;;;;;;;;7.00;6.25;;;;;23.56;37.25;101601.91;5085284;27;45286;-74
2021/06/14 07:54:25;;;;;;;;;7.00;6.00;;;;;23.62;38.00;101602.47;5100973;27;45331;-74
2021/06/14 07:56:52;;;;;;;;;9.00;6.75;;;;;23.65;37.83;101596.91;5100344;27;45342;-74
2021/06/14 07:59:18;;;;;;;;;11.00;7.25;;;;;23.72;37.76;101604.63;5101254;27;45406;-74
2021/06/14 08:01:43;;;;;;;;;9.00;7.00;;;;;23.77;37.69;101605.22;5082362;27;45189;-74
2021/06/14 08:04:09;;;;;;;;;5.75;5.75;;;;;23.80;37.67;101599.72;5100853;27;45459;-74
2021/06/14 08:06:34;;;;;;;;;8.00;8.00;;;;;23.82;37.44;101584.38;5082213;27;45256;-75
2021/06/14 08:09:01;;;;;;;;;7.25;7.25;;;;;23.87;37.44;101593.00;5101107;27;45449;-74
2021/06/14 08:11:28;;;;;;;;;11.25;6.50;;;;;23.93;37.63;101598.06;5100228;27;45374;-74
2021/06/14 08:13:53;;;;;;;;;12.75;11.75;;;;;24.02;37.26;101594.00;5100395;27;46487;-74
2021/06/14 08:16:19;;;;;;;;;10.25;10.25;;;;;24.06;37.27;101603.59;5100130;27;45481;-75
2021/06/14 08:26:38;;;;;;;;;7.50;7.50;;;;;24.26;37.29;101588.16;5100302;27;45393;-74
2021/06/14 08:29:04;;;;;;;;;10.00;7.25;;;;;24.36;37.21;101583.09;5100557;27;45414;-74
2021/06/14 08:31:32;;;;;;;;;8.00;7.25;;;;;24.41;37.28;101579.19;5099982;27;45287;-75
2021/06/14 08:33:58;;;;;;;;;7.00;6.50;;;;;24.47;37.09;101588.72;5099556;27;45263;-74
2021/06/14 08:36:25;;;;;;;;;9.50;8.25;;;;;24.54;37.20;101592.75;5099756;27;45361;-75
2021/06/14 08:38:51;;;;;;;;;7.50;7.50;;;;;24.60;37.07;101581.66;5099786;27;45458;-76
2021/06/14 08:41:18;;;;;;;;;8.00;7.00;;;;;24.67;37.22;101582.16;5090727;27;45332;-75
2021/06/14 08:43:47;;;;;;;;;8.25;7.50;;;;;24.73;37.22;101579.09;5119665;27;46986;-74
2021/06/14 08:46:12;;;;;;;;;7.00;7.00;;;;;24.77;37.23;101569.03;5102279;27;45255;-75
2021/06/14 08:48:41;;;;;;;;;10.75;7.75;;;;;24.87;37.04;101574.69;5120095;27;45251;-75
2021/06/14 08:51:07;;;;;;;;;7.25;6.00;;;;;24.95;36.92;101575.09;5109633;27;45323;-75
2021/06/14 08:53:32;;;;;;;;;8.25;8.25;;;;;25.02;37.18;101573.75;5081092;27;45558;-74
2021/06/14 08:55:58;;;;;;;;;8.50;7.25;;;;;25.06;36.86;101569.06;5098091;27;45489;-75
2021/06/14 08:58:23;;;;;;;;;15.50;14.00;;;;;25.13;37.15;101570.38;5099205;27;45784;-75
2021/06/14 09:00:49;;;;;;;;;9.00;8.00;;;;;25.19;36.83;101564.63;5099499;27;45399;-75
2021/06/14 09:03:18;;;;;;;;;9.00;6.75;;;;;25.20;36.85;101555.59;5099244;27;46002;-74
2021/06/14 09:05:44;;;;;;;;;6.00;6.00;;;;;25.30;37.03;101551.34;5081785;27;45328;-75
2021/06/14 09:08:09;;;;;;;;;8.75;7.00;;;;;25.34;36.51;101554.72;5099386;27;45291;-74
2021/06/14 09:10:37;;;;;;;;;8.00;7.25;;;;;25.45;36.93;101559.44;5099609;27;45484;-75
2021/06/14 09:13:11;;;;;;;;;9.00;8.00;;;;;25.52;36.42;101554.53;5098721;27;45471;-75
2021/06/14 09:15:37;;;;;;;;;9.00;9.00;;;;;25.54;36.44;101537.31;5080927;27;45357;-75
2021/06/14 09:18:17;;;;;;;;;7.50;6.25;;;;;25.63;36.73;101528.66;5080761;27;45403;-75
2021/06/14 09:21:13;;;;;;;;;10.00;8.75;;;;;25.71;36.17;101538.03;5098924;27;45173;-75
2021/06/14 09:23:53;;;;;;;;;6.50;5.00;;;;;25.79;36.00;101536.56;5099079;27;46298;-75
2021/06/14 09:26:25;;;;;;;;;7.75;6.25;;;;;25.85;35.81;101529.03;5098860;27;45316;-75
2021/06/14 09:28:54;;;;;;;;;7.25;7.25;;;;;25.92;35.70;101531.25;5102232;27;45411;-75
2021/06/14 09:31:19;;;;;;;;;9.25;7.25;;;;;26.01;35.67;101534.28;5102483;27;45442;-75
2021/06/14 09:33:46;;;;;;;;;9.25;7.00;;;;;26.08;36.10;101527.56;5102284;27;46034;-75
2021/06/14 09:36:13;;;;;;;;;7.00;6.00;;;;;26.11;35.97;101532.72;5102746;27;45202;-75
2021/06/14 09:38:39;;;;;;;;;14.00;11.00;;;;;26.21;35.23;101532.97;5102423;27;45381;-76
2021/06/14 09:41:11;;;;;;;;;6.00;5.25;;;;;26.30;35.87;101545.78;5110222;27;45851;-75
2021/06/14 09:43:40;;;;;;;;;6.50;6.00;;;;;26.37;35.30;101533.63;5104442;27;45377;-75
2021/06/14 09:46:16;;;;;;;;;9.50;9.50;;;;;26.46;34.94;101534.84;5122791;27;45398;-74
2021/06/14 09:48:41;;;;;;;;;6.00;5.25;;;;;26.54;34.94;101537.88;5123019;27;45371;-75
2021/06/14 09:51:07;;;;;;;;;6.75;5.75;;;;;26.63;34.65;101532.78;5097880;27;45458;-75
2021/06/14 09:53:44;;;;;;;;;7.50;6.75;;;;;26.69;34.62;101535.06;5102231;27;45517;-75
2021/06/14 09:56:21;;;;;;;;;6.75;6.75;;;;;26.80;35.21;101537.88;5102491;27;45301;-75
2021/06/14 09:58:50;;;;;;;;;7.75;7.50;;;;;26.87;34.64;101533.78;5109391;27;45236;-75
2021/06/14 10:01:36;;;;;;;;;8.50;6.25;;;;;26.98;34.27;101535.75;5104139;27;45686;-75
2021/06/14 10:04:09;;;;;;;;;6.75;6.25;;;;;27.06;34.82;101536.03;5122681;27;46319;-75
2021/06/14 10:06:43;;;;;;;;;7.50;5.75;;;;;27.15;34.41;101536.38;5122290;27;45379;-75
2021/06/14 10:09:11;;;;;;;;;9.00;6.75;;;;;27.25;34.54;101537.41;5122724;27;45311;-75
2021/06/14 10:11:38;;;;;;;;;9.75;8.75;;;;;27.33;34.50;101528.75;5103466;27;45434;-75
2021/06/14 10:14:13;;;;;;;;;6.00;5.00;;;;;27.42;33.62;101525.41;5122488;27;46313;-75
2021/06/14 10:16:40;;;;;;;;;5.25;5.00;;;;;27.54;33.68;101532.59;5122598;27;45292;-75
2021/06/14 10:19:08;;;;;;;;;6.00;6.00;;;;;27.62;33.80;101525.78;5117120;27;45484;-68
2021/06/14 10:21:50;;;;;;;;;6.00;6.00;;;;;27.71;34.17;101527.78;5096544;27;45480;-70
2021/06/14 10:24:19;;;;;;;;;9.00;7.50;;;;;27.86;33.85;101526.66;5102072;27;45404;-68
2021/06/14 10:26:47;;;;;;;;;7.00;7.00;;;;;27.97;33.67;101525.81;5109690;27;45334;-67
2021/06/14 10:29:15;;;;;;;;;7.00;6.00;;;;;28.09;33.06;101531.28;5103929;27;45404;-67
2021/06/14 10:31:42;;;;;;;;;5.25;5.25;;;;;28.20;33.90;101529.50;5113480;27;45399;-66
2021/06/14 10:34:09;;;;;;;;;7.50;5.00;;;;;28.32;33.14;101532.25;5116219;27;46464;-65
2021/06/14 10:36:35;;;;;;;;;5.25;4.50;;;;;28.44;32.85;101530.41;5112932;27;45385;-65
2021/06/14 10:39:03;;;;;;;;;8.75;6.00;;;;;28.61;32.70;101535.38;5107992;27;45343;-65
2021/06/14 10:41:29;;;;;;;;;4.00;4.00;;;;;28.82;33.51;101530.13;5111579;27;45513;-67
2021/06/14 10:43:55;;;;;;;;;5.75;5.00;;;;;29.16;34.00;101537.41;5114397;27;45486;-67
2021/06/14 10:46:24;;;;;;;;;5.50;5.00;;;;;29.64;34.74;101526.25;5096062;27;45433;-66
2021/06/14 10:49:00;;;;;;;;;7.25;6.75;;;;;30.31;35.34;101527.00;5115021;27;45271;-68
2021/06/14 10:51:26;;;;;;;;;6.50;6.50;;;;;31.07;35.18;101522.28;5117901;27;45465;-68
2021/06/14 10:54:03;;;;;;;;;5.75;5.75;;;;;31.83;36.03;101520.91;5107893;27;45418;-68
2021/06/14 10:56:28;;;;;;;;;6.25;5.25;;;;;32.65;36.32;101524.09;5119079;27;45362;-68
2021/06/14 10:59:02;;;;;;;;;4.25;4.25;;;;;33.48;36.39;101513.25;5115692;27;45306;-66
2021/06/14 11:01:31;;;;;;;;;4.00;3.00;;;;;34.37;36.32;101523.47;5117282;27;45455;-66
2021/06/14 11:03:57;;;;;;;;;3.50;3.50;;;;;35.18;36.48;101530.38;5095471;27;47395;-69
2021/06/14 11:06:25;;;;;;;;;6.00;5.25;;;;;36.08;36.09;101532.47;5117426;27;45290;-67
2021/06/14 11:09:02;;;;;;;;;6.75;5.25;;;;;37.03;36.37;101535.56;5119485;27;45423;-67
2021/06/14 11:11:28;;;;;;;;;6.25;6.25;;;;;37.89;36.33;101536.44;5118538;27;45256;-67
2021/06/14 11:13:54;;;;;;;;;5.25;3.75;;;;;38.72;36.68;101540.31;5120318;27;45381;-68
2021/06/14 11:16:21;;;;;;;;;7.00;4.00;;;;;39.48;36.48;101538.13;5119575;27;45343;-67
2021/06/14 11:18:49;;;;;;;;;4.75;4.75;;;;;40.22;36.06;101535.28;5086707;27;45265;-66
2021/06/14 11:21:21;;;;;;;;;6.25;4.75;;;;;40.89;35.58;101535.72;5080140;27;45317;-71
2021/06/14 11:23:49;;;;;;;;;3.00;3.00;;;;;41.43;33.87;101534.91;5071179;27;45363;-71
2021/06/14 11:26:30;;;;;;;;;3.25;3.00;;;;;41.77;31.92;101540.47;5078246;27;45278;-70
2021/06/14 11:28:56;;;;;;;;;3.50;3.25;;;;;41.80;30.60;101534.56;5079128;27;45232;-68
2021/06/14 11:31:24;;;;;;;;;2.00;2.00;;;;;41.62;29.23;101535.16;5078299;27;45593;-71
2021/06/14 11:33:52;;;;;;;;;3.00;3.00;;;;;41.26;28.40;101533.56;5078229;27;46374;-69